sensor_id;sensor_type;location;lat;lon;timestamp;P1;durP1;ratioP1;P2;durP2;ratioP2
57609;SDS011;43435;46.186;9.024;2023-01-04T10:33:47;2.17;;;1.27;;
57609;SDS011;43435;46.186;9.024;2023-01-04T10:36:28;2.50;;;1.23;;
57609;SDS011;43435;46.186;9.024;2023-01-04T10:41:28;1.48;;;1.02;;
57609;SDS011;43435;46.186;9.024;2023-01-04T10:49:16;3.45;;;1.10;;
57609;SDS011;43435;46.186;9.024;2023-01-04T10:54:34;2.42;;;0.90;;
57609;SDS011;43435;46.186;9.024;2023-01-04T10:57:30;2.20;;;1.00;;
57609;SDS011;43435;46.186;9.024;2023-01-04T17:45:29;3.65;;;1.70;;
57609;SDS011;43435;46.186;9.024;2023-01-04T20:06:39;8.95;;;5.75;;
57609;SDS011;43435;46.186;9.024;2023-01-04T20:09:04;9.82;;;4.57;;
57609;SDS011;43435;46.186;9.024;2023-01-04T20:11:29;14.63;;;6.57;;
57609;SDS011;43435;46.186;9.024;2023-01-04T20:13:55;11.35;;;6.55;;
57609;SDS011;43435;46.186;9.024;2023-01-04T20:16:21;11.20;;;5.88;;
57609;SDS011;43435;46.186;9.024;2023-01-04T20:18:47;12.02;;;5.80;;
57609;SDS011;43435;46.186;9.024;2023-01-04T20:21:12;9.43;;;5.25;;
57609;SDS011;43435;46.186;9.024;2023-01-04T20:23:40;5.88;;;4.03;;
57609;SDS011;43435;46.186;9.024;2023-01-04T20:26:07;6.60;;;3.92;;
57609;SDS011;43435;46.186;9.024;2023-01-04T20:28:36;5.72;;;3.53;;
57609;SDS011;43435;46.186;9.024;2023-01-04T20:31:03;4.53;;;2.95;;
57609;SDS011;43435;46.186;9.024;2023-01-04T20:33:30;13.52;;;6.82;;
57609;SDS011;43435;46.186;9.024;2023-01-04T20:35:55;12.35;;;7.25;;
57609;SDS011;43435;46.186;9.024;2023-01-04T20:38:21;12.15;;;6.63;;
57609;SDS011;43435;46.186;9.024;2023-01-04T20:40:46;21.70;;;13.20;;
57609;SDS011;43435;46.186;9.024;2023-01-04T20:43:11;13.40;;;7.93;;
57609;SDS011;43435;46.186;9.024;2023-01-04T20:45:55;13.57;;;7.70;;
57609;SDS011;43435;46.186;9.024;2023-01-04T20:48:21;9.77;;;5.80;;
57609;SDS011;43435;46.186;9.024;2023-01-04T20:50:48;10.10;;;6.18;;
57609;SDS011;43435;46.186;9.024;2023-01-04T20:53:13;11.52;;;5.85;;
57609;SDS011;43435;46.186;9.024;2023-01-04T20:55:39;14.05;;;7.90;;
57609;SDS011;43435;46.186;9.024;2023-01-04T20:58:06;10.02;;;6.22;;
57609;SDS011;43435;46.186;9.024;2023-01-04T21:00:33;9.32;;;6.38;;
57609;SDS011;43435;46.186;9.024;2023-01-04T21:02:59;17.27;;;7.88;;
57609;SDS011;43435;46.186;9.024;2023-01-04T21:05:24;15.45;;;7.70;;
57609;SDS011;43435;46.186;9.024;2023-01-04T21:07:50;8.93;;;5.30;;
57609;SDS011;43435;46.186;9.024;2023-01-04T21:10:15;4.55;;;2.95;;
57609;SDS011;43435;46.186;9.024;2023-01-04T21:12:40;5.28;;;3.22;;
57609;SDS011;43435;46.186;9.024;2023-01-04T21:15:05;5.35;;;3.05;;
57609;SDS011;43435;46.186;9.024;2023-01-04T21:17:31;6.88;;;4.22;;
57609;SDS011;43435;46.186;9.024;2023-01-04T21:19:56;9.23;;;4.20;;
57609;SDS011;43435;46.186;9.024;2023-01-04T21:22:21;10.60;;;5.60;;
57609;SDS011;43435;46.186;9.024;2023-01-04T21:24:47;18.42;;;8.93;;
57609;SDS011;43435;46.186;9.024;2023-01-04T21:27:13;9.45;;;4.82;;
57609;SDS011;43435;46.186;9.024;2023-01-04T21:29:38;6.78;;;4.07;;
57609;SDS011;43435;46.186;9.024;2023-01-04T21:32:04;5.47;;;3.47;;
57609;SDS011;43435;46.186;9.024;2023-01-04T21:34:29;5.63;;;2.97;;
57609;SDS011;43435;46.186;9.024;2023-01-04T21:36:55;5.03;;;2.60;;
57609;SDS011;43435;46.186;9.024;2023-01-04T21:39:20;3.78;;;2.85;;
57609;SDS011;43435;46.186;9.024;2023-01-04T21:41:46;5.57;;;3.08;;
57609;SDS011;43435;46.186;9.024;2023-01-04T21:44:11;4.53;;;2.25;;
57609;SDS011;43435;46.186;9.024;2023-01-04T21:46:37;4.70;;;2.28;;
57609;SDS011;43435;46.186;9.024;2023-01-04T21:49:02;5.13;;;3.38;;
57609;SDS011;43435;46.186;9.024;2023-01-04T21:51:28;6.38;;;3.83;;
57609;SDS011;43435;46.186;9.024;2023-01-04T21:53:54;5.85;;;3.20;;
57609;SDS011;43435;46.186;9.024;2023-01-04T21:56:20;5.07;;;3.13;;
57609;SDS011;43435;46.186;9.024;2023-01-04T21:58:47;5.40;;;2.55;;
57609;SDS011;43435;46.186;9.024;2023-01-04T22:01:17;3.85;;;2.10;;
57609;SDS011;43435;46.186;9.024;2023-01-04T22:03:44;3.88;;;2.17;;
57609;SDS011;43435;46.186;9.024;2023-01-04T22:06:09;4.30;;;2.42;;
57609;SDS011;43435;46.186;9.024;2023-01-04T22:08:37;6.13;;;1.90;;
57609;SDS011;43435;46.186;9.024;2023-01-04T22:11:02;3.05;;;2.00;;
57609;SDS011;43435;46.186;9.024;2023-01-04T22:13:28;2.95;;;1.75;;
57609;SDS011;43435;46.186;9.024;2023-01-04T22:15:54;3.35;;;1.45;;
57609;SDS011;43435;46.186;9.024;2023-01-04T22:18:19;1.92;;;1.10;;
57609;SDS011;43435;46.186;9.024;2023-01-04T22:20:45;2.75;;;1.70;;
57609;SDS011;43435;46.186;9.024;2023-01-04T22:23:10;3.17;;;2.15;;
57609;SDS011;43435;46.186;9.024;2023-01-04T22:25:36;4.63;;;2.38;;
57609;SDS011;43435;46.186;9.024;2023-01-04T22:28:01;5.53;;;3.08;;
57609;SDS011;43435;46.186;9.024;2023-01-04T22:30:27;4.90;;;3.53;;
57609;SDS011;43435;46.186;9.024;2023-01-04T22:32:53;7.97;;;4.28;;
57609;SDS011;43435;46.186;9.024;2023-01-04T22:35:18;7.38;;;3.65;;
57609;SDS011;43435;46.186;9.024;2023-01-04T22:37:44;6.47;;;4.18;;
57609;SDS011;43435;46.186;9.024;2023-01-04T22:40:09;7.47;;;4.18;;
57609;SDS011;43435;46.186;9.024;2023-01-04T22:42:36;9.70;;;4.60;;
57609;SDS011;43435;46.186;9.024;2023-01-04T22:45:01;7.40;;;4.63;;
57609;SDS011;43435;46.186;9.024;2023-01-04T22:47:26;7.70;;;3.58;;
57609;SDS011;43435;46.186;9.024;2023-01-04T22:49:52;6.13;;;3.60;;
57609;SDS011;43435;46.186;9.024;2023-01-04T22:52:17;8.48;;;2.97;;
57609;SDS011;43435;46.186;9.024;2023-01-04T22:54:42;3.50;;;2.15;;
57609;SDS011;43435;46.186;9.024;2023-01-04T22:57:07;4.20;;;2.00;;
57609;SDS011;43435;46.186;9.024;2023-01-04T22:59:33;5.18;;;3.53;;
57609;SDS011;43435;46.186;9.024;2023-01-04T23:01:58;6.18;;;3.30;;
57609;SDS011;43435;46.186;9.024;2023-01-04T23:04:23;7.03;;;3.80;;
57609;SDS011;43435;46.186;9.024;2023-01-04T23:06:49;7.75;;;3.75;;
57609;SDS011;43435;46.186;9.024;2023-01-04T23:09:15;6.40;;;3.60;;
57609;SDS011;43435;46.186;9.024;2023-01-04T23:11:41;5.15;;;2.58;;
57609;SDS011;43435;46.186;9.024;2023-01-04T23:14:08;6.57;;;3.15;;
57609;SDS011;43435;46.186;9.024;2023-01-04T23:16:36;4.68;;;3.10;;
57609;SDS011;43435;46.186;9.024;2023-01-04T23:19:03;5.32;;;3.40;;
57609;SDS011;43435;46.186;9.024;2023-01-04T23:21:29;5.30;;;3.10;;
57609;SDS011;43435;46.186;9.024;2023-01-04T23:23:56;5.85;;;3.10;;
57609;SDS011;43435;46.186;9.024;2023-01-04T23:26:22;4.10;;;2.85;;
57609;SDS011;43435;46.186;9.024;2023-01-04T23:28:49;10.07;;;3.90;;
57609;SDS011;43435;46.186;9.024;2023-01-04T23:31:16;6.60;;;3.92;;
57609;SDS011;43435;46.186;9.024;2023-01-04T23:33:42;8.13;;;4.45;;
57609;SDS011;43435;46.186;9.024;2023-01-04T23:38:36;3.75;;;2.58;;
57609;SDS011;43435;46.186;9.024;2023-01-04T23:41:02;6.50;;;3.40;;
57609;SDS011;43435;46.186;9.024;2023-01-04T23:43:27;8.43;;;3.75;;
57609;SDS011;43435;46.186;9.024;2023-01-04T23:45:53;5.57;;;4.00;;
57609;SDS011;43435;46.186;9.024;2023-01-04T23:48:18;9.60;;;5.20;;
57609;SDS011;43435;46.186;9.024;2023-01-04T23:50:43;8.68;;;4.50;;
57609;SDS011;43435;46.186;9.024;2023-01-04T23:53:09;6.65;;;4.32;;
57609;SDS011;43435;46.186;9.024;2023-01-04T23:55:34;8.15;;;4.32;;
57609;SDS011;43435;46.186;9.024;2023-01-04T23:58:00;8.50;;;4.70;;
